sensor_id;sensor_type;location;lat;lon;timestamp;P1;durP1;ratioP1;P2;durP2;ratioP2
72801;SDS011;61891;55.818;37.084;2023-07-24T00:00:51;5.75;;;3.63;;
72801;SDS011;61891;55.818;37.084;2023-07-24T00:03:17;7.60;;;4.50;;
72801;SDS011;61891;55.818;37.084;2023-07-24T00:05:42;7.82;;;4.00;;
72801;SDS011;61891;55.818;37.084;2023-07-24T00:08:08;6.80;;;3.92;;
72801;SDS011;61891;55.818;37.084;2023-07-24T00:10:34;10.20;;;3.50;;
72801;SDS011;61891;55.818;37.084;2023-07-24T00:13:00;11.45;;;3.80;;
72801;SDS011;61891;55.818;37.084;2023-07-24T00:15:26;6.35;;;3.38;;
72801;SDS011;61891;55.818;37.084;2023-07-24T00:17:52;5.85;;;3.53;;
72801;SDS011;61891;55.818;37.084;2023-07-24T00:20:18;5.80;;;3.72;;
72801;SDS011;61891;55.818;37.084;2023-07-24T00:22:44;6.13;;;3.83;;
72801;SDS011;61891;55.818;37.084;2023-07-24T00:25:09;7.32;;;3.58;;
72801;SDS011;61891;55.818;37.084;2023-07-24T00:27:35;4.95;;;3.20;;
72801;SDS011;61891;55.818;37.084;2023-07-24T00:30:01;6.15;;;3.58;;
72801;SDS011;61891;55.818;37.084;2023-07-24T00:32:30;8.77;;;4.05;;
72801;SDS011;61891;55.818;37.084;2023-07-24T00:34:56;9.88;;;4.07;;
72801;SDS011;61891;55.818;37.084;2023-07-24T00:37:23;7.47;;;4.03;;
72801;SDS011;61891;55.818;37.084;2023-07-24T00:39:49;10.55;;;4.05;;
72801;SDS011;61891;55.818;37.084;2023-07-24T00:42:16;7.10;;;3.60;;
72801;SDS011;61891;55.818;37.084;2023-07-24T00:44:42;7.70;;;3.88;;
72801;SDS011;61891;55.818;37.084;2023-07-24T00:47:09;7.30;;;3.42;;
72801;SDS011;61891;55.818;37.084;2023-07-24T00:49:34;8.50;;;4.05;;
72801;SDS011;61891;55.818;37.084;2023-07-24T00:52:00;10.13;;;3.85;;
72801;SDS011;61891;55.818;37.084;2023-07-24T00:54:26;7.50;;;3.63;;
72801;SDS011;61891;55.818;37.084;2023-07-24T00:56:56;8.52;;;3.83;;
72801;SDS011;61891;55.818;37.084;2023-07-24T00:59:22;10.60;;;4.13;;
72801;SDS011;61891;55.818;37.084;2023-07-24T01:01:48;9.18;;;4.30;;
72801;SDS011;61891;55.818;37.084;2023-07-24T01:04:14;12.98;;;4.30;;
72801;SDS011;61891;55.818;37.084;2023-07-24T01:06:41;9.85;;;3.92;;
72801;SDS011;61891;55.818;37.084;2023-07-24T01:09:07;11.98;;;4.65;;
72801;SDS011;61891;55.818;37.084;2023-07-24T01:11:37;6.03;;;3.55;;
72801;SDS011;61891;55.818;37.084;2023-07-24T01:14:21;5.18;;;3.50;;
72801;SDS011;61891;55.818;37.084;2023-07-24T01:16:50;9.27;;;3.78;;
72801;SDS011;61891;55.818;37.084;2023-07-24T01:19:37;8.55;;;3.97;;
72801;SDS011;61891;55.818;37.084;2023-07-24T01:27:35;17.23;;;4.00;;
72801;SDS011;61891;55.818;37.084;2023-07-24T01:30:01;9.65;;;4.05;;
72801;SDS011;61891;55.818;37.084;2023-07-24T01:32:30;16.13;;;4.13;;
72801;SDS011;61891;55.818;37.084;2023-07-24T01:34:55;14.15;;;3.85;;
72801;SDS011;61891;55.818;37.084;2023-07-24T01:37:22;15.18;;;4.93;;
72801;SDS011;61891;55.818;37.084;2023-07-24T01:39:50;12.15;;;3.97;;
72801;SDS011;61891;55.818;37.084;2023-07-24T01:42:16;9.30;;;3.53;;
72801;SDS011;61891;55.818;37.084;2023-07-24T01:44:42;9.27;;;4.05;;
72801;SDS011;61891;55.818;37.084;2023-07-24T01:47:08;12.82;;;3.97;;
72801;SDS011;61891;55.818;37.084;2023-07-24T01:49:34;11.73;;;3.85;;
72801;SDS011;61891;55.818;37.084;2023-07-24T01:52:00;10.35;;;3.70;;
72801;SDS011;61891;55.818;37.084;2023-07-24T01:54:26;10.00;;;3.42;;
72801;SDS011;61891;55.818;37.084;2023-07-24T01:56:52;6.18;;;3.55;;
72801;SDS011;61891;55.818;37.084;2023-07-24T01:59:17;10.32;;;3.90;;
72801;SDS011;61891;55.818;37.084;2023-07-24T02:01:43;9.18;;;4.13;;
72801;SDS011;61891;55.818;37.084;2023-07-24T02:04:09;9.95;;;3.72;;
72801;SDS011;61891;55.818;37.084;2023-07-24T02:06:35;9.65;;;3.80;;
72801;SDS011;61891;55.818;37.084;2023-07-24T02:09:01;5.82;;;3.22;;
72801;SDS011;61891;55.818;37.084;2023-07-24T02:11:26;7.53;;;3.22;;
72801;SDS011;61891;55.818;37.084;2023-07-24T02:13:52;7.15;;;3.42;;
72801;SDS011;61891;55.818;37.084;2023-07-24T02:16:19;6.93;;;3.20;;
72801;SDS011;61891;55.818;37.084;2023-07-24T02:18:45;8.27;;;3.72;;
72801;SDS011;61891;55.818;37.084;2023-07-24T02:21:11;5.20;;;2.78;;
72801;SDS011;61891;55.818;37.084;2023-07-24T02:23:37;7.75;;;3.42;;
72801;SDS011;61891;55.818;37.084;2023-07-24T02:26:04;6.32;;;2.95;;
72801;SDS011;61891;55.818;37.084;2023-07-24T02:28:32;6.13;;;3.10;;
72801;SDS011;61891;55.818;37.084;2023-07-24T02:30:58;5.65;;;2.60;;
72801;SDS011;61891;55.818;37.084;2023-07-24T02:33:26;7.70;;;3.50;;
72801;SDS011;61891;55.818;37.084;2023-07-24T02:35:52;5.35;;;3.08;;
72801;SDS011;61891;55.818;37.084;2023-07-24T02:38:18;8.45;;;3.17;;
72801;SDS011;61891;55.818;37.084;2023-07-24T02:40:45;3.95;;;2.50;;
72801;SDS011;61891;55.818;37.084;2023-07-24T02:43:11;5.40;;;3.05;;
72801;SDS011;61891;55.818;37.084;2023-07-24T02:45:38;5.80;;;2.58;;
72801;SDS011;61891;55.818;37.084;2023-07-24T02:50:30;4.95;;;2.95;;
72801;SDS011;61891;55.818;37.084;2023-07-24T02:52:57;6.38;;;3.15;;
72801;SDS011;61891;55.818;37.084;2023-07-24T02:55:23;6.50;;;2.90;;
72801;SDS011;61891;55.818;37.084;2023-07-24T02:57:49;4.93;;;2.85;;
72801;SDS011;61891;55.818;37.084;2023-07-24T03:00:16;3.70;;;2.72;;
72801;SDS011;61891;55.818;37.084;2023-07-24T03:02:42;4.22;;;2.90;;
72801;SDS011;61891;55.818;37.084;2023-07-24T03:05:08;4.85;;;2.85;;
72801;SDS011;61891;55.818;37.084;2023-07-24T03:07:34;4.50;;;3.15;;
72801;SDS011;61891;55.818;37.084;2023-07-24T03:12:26;4.80;;;2.60;;
72801;SDS011;61891;55.818;37.084;2023-07-24T03:14:52;9.63;;;3.13;;
72801;SDS011;61891;55.818;37.084;2023-07-24T03:17:18;4.18;;;2.78;;
72801;SDS011;61891;55.818;37.084;2023-07-24T03:19:43;5.35;;;2.78;;
72801;SDS011;61891;55.818;37.084;2023-07-24T03:22:09;4.75;;;2.65;;
72801;SDS011;61891;55.818;37.084;2023-07-24T03:24:35;3.85;;;2.50;;
72801;SDS011;61891;55.818;37.084;2023-07-24T03:27:01;5.40;;;2.80;;
72801;SDS011;61891;55.818;37.084;2023-07-24T03:29:27;4.15;;;2.80;;
72801;SDS011;61891;55.818;37.084;2023-07-24T03:31:53;4.13;;;2.60;;
72801;SDS011;61891;55.818;37.084;2023-07-24T03:34:19;3.33;;;2.47;;
72801;SDS011;61891;55.818;37.084;2023-07-24T03:36:44;5.15;;;2.70;;
72801;SDS011;61891;55.818;37.084;2023-07-24T03:39:10;4.97;;;3.03;;
72801;SDS011;61891;55.818;37.084;2023-07-24T03:41:38;8.20;;;3.15;;
72801;SDS011;61891;55.818;37.084;2023-07-24T03:44:04;14.55;;;3.90;;
72801;SDS011;61891;55.818;37.084;2023-07-24T03:46:33;5.53;;;2.72;;
72801;SDS011;61891;55.818;37.084;2023-07-24T03:48:59;6.15;;;2.80;;
72801;SDS011;61891;55.818;37.084;2023-07-24T03:51:24;5.82;;;3.00;;
72801;SDS011;61891;55.818;37.084;2023-07-24T03:53:50;6.82;;;3.17;;
72801;SDS011;61891;55.818;37.084;2023-07-24T03:56:16;5.30;;;2.60;;
72801;SDS011;61891;55.818;37.084;2023-07-24T03:58:42;4.70;;;2.80;;
72801;SDS011;61891;55.818;37.084;2023-07-24T04:01:08;5.07;;;2.90;;
72801;SDS011;61891;55.818;37.084;2023-07-24T04:03:34;4.60;;;2.67;;
72801;SDS011;61891;55.818;37.084;2023-07-24T04:06:01;4.45;;;2.67;;
72801;SDS011;61891;55.818;37.084;2023-07-24T04:10:52;2.92;;;2.55;;
72801;SDS011;61891;55.818;37.084;2023-07-24T04:13:21;4.22;;;3.05;;
72801;SDS011;61891;55.818;37.084;2023-07-24T04:15:47;4.45;;;2.60;;
72801;SDS011;61891;55.818;37.084;2023-07-24T04:18:13;4.47;;;2.67;;
72801;SDS011;61891;55.818;37.084;2023-07-24T04:20:39;5.07;;;3.10;;
72801;SDS011;61891;55.818;37.084;2023-07-24T04:23:05;3.78;;;2.47;;
72801;SDS011;61891;55.818;37.084;2023-07-24T04:25:34;5.03;;;2.53;;
72801;SDS011;61891;55.818;37.084;2023-07-24T04:27:59;4.30;;;3.03;;
72801;SDS011;61891;55.818;37.084;2023-07-24T04:30:28;4.75;;;2.30;;
72801;SDS011;61891;55.818;37.084;2023-07-24T04:32:53;4.38;;;2.75;;
72801;SDS011;61891;55.818;37.084;2023-07-24T04:35:22;4.43;;;2.65;;
72801;SDS011;61891;55.818;37.084;2023-07-24T04:37:48;5.20;;;3.00;;
72801;SDS011;61891;55.818;37.084;2023-07-24T04:40:16;5.88;;;2.63;;
72801;SDS011;61891;55.818;37.084;2023-07-24T04:42:42;3.35;;;2.30;;
72801;SDS011;61891;55.818;37.084;2023-07-24T04:45:08;3.92;;;2.10;;
72801;SDS011;61891;55.818;37.084;2023-07-24T04:50:02;4.65;;;2.33;;
72801;SDS011;61891;55.818;37.084;2023-07-24T04:52:29;2.35;;;2.10;;
72801;SDS011;61891;55.818;37.084;2023-07-24T04:54:55;3.20;;;2.15;;
72801;SDS011;61891;55.818;37.084;2023-07-24T04:57:23;5.00;;;2.20;;
72801;SDS011;61891;55.818;37.084;2023-07-24T04:59:49;3.35;;;2.47;;
72801;SDS011;61891;55.818;37.084;2023-07-24T05:02:20;3.08;;;2.35;;
72801;SDS011;61891;55.818;37.084;2023-07-24T05:04:56;3.15;;;2.22;;
72801;SDS011;61891;55.818;37.084;2023-07-24T05:07:22;4.97;;;2.13;;
72801;SDS011;61891;55.818;37.084;2023-07-24T05:09:47;2.75;;;2.10;;
72801;SDS011;61891;55.818;37.084;2023-07-24T05:12:13;2.75;;;2.05;;
72801;SDS011;61891;55.818;37.084;2023-07-24T05:14:39;3.25;;;2.10;;
72801;SDS011;61891;55.818;37.084;2023-07-24T05:17:05;4.18;;;2.13;;
72801;SDS011;61891;55.818;37.084;2023-07-24T05:19:31;5.20;;;2.85;;
72801;SDS011;61891;55.818;37.084;2023-07-24T05:21:56;2.55;;;2.17;;
72801;SDS011;61891;55.818;37.084;2023-07-24T05:24:22;5.78;;;2.55;;
72801;SDS011;61891;55.818;37.084;2023-07-24T05:26:48;5.20;;;2.53;;
72801;SDS011;61891;55.818;37.084;2023-07-24T05:29:14;4.57;;;2.08;;
72801;SDS011;61891;55.818;37.084;2023-07-24T05:31:39;5.15;;;2.08;;
72801;SDS011;61891;55.818;37.084;2023-07-24T05:34:05;3.85;;;2.25;;
72801;SDS011;61891;55.818;37.084;2023-07-24T05:36:31;4.07;;;2.83;;
72801;SDS011;61891;55.818;37.084;2023-07-24T05:38:56;3.28;;;2.15;;
72801;SDS011;61891;55.818;37.084;2023-07-24T05:41:23;4.22;;;2.28;;
72801;SDS011;61891;55.818;37.084;2023-07-24T05:43:49;4.32;;;2.05;;
72801;SDS011;61891;55.818;37.084;2023-07-24T05:46:15;4.05;;;2.42;;
72801;SDS011;61891;55.818;37.084;2023-07-24T05:48:41;3.50;;;2.33;;
72801;SDS011;61891;55.818;37.084;2023-07-24T05:51:07;3.20;;;2.42;;
72801;SDS011;61891;55.818;37.084;2023-07-24T05:53:33;3.30;;;2.25;;
72801;SDS011;61891;55.818;37.084;2023-07-24T05:56:01;4.00;;;2.40;;
72801;SDS011;61891;55.818;37.084;2023-07-24T05:58:30;4.13;;;2.25;;
72801;SDS011;61891;55.818;37.084;2023-07-24T06:00:59;3.22;;;2.03;;
72801;SDS011;61891;55.818;37.084;2023-07-24T06:03:25;5.45;;;2.50;;
72801;SDS011;61891;55.818;37.084;2023-07-24T06:05:55;3.63;;;2.30;;
72801;SDS011;61891;55.818;37.084;2023-07-24T06:08:21;2.20;;;1.88;;
72801;SDS011;61891;55.818;37.084;2023-07-24T06:10:50;3.20;;;2.00;;
72801;SDS011;61891;55.818;37.084;2023-07-24T06:13:16;4.78;;;2.25;;
72801;SDS011;61891;55.818;37.084;2023-07-24T06:15:43;4.22;;;2.00;;
72801;SDS011;61891;55.818;37.084;2023-07-24T06:18:09;5.55;;;2.70;;
72801;SDS011;61891;55.818;37.084;2023-07-24T06:20:35;3.92;;;2.08;;
72801;SDS011;61891;55.818;37.084;2023-07-24T06:25:29;5.57;;;2.38;;
72801;SDS011;61891;55.818;37.084;2023-07-24T06:27:56;4.07;;;2.28;;
72801;SDS011;61891;55.818;37.084;2023-07-24T06:30:22;3.50;;;2.03;;
72801;SDS011;61891;55.818;37.084;2023-07-24T06:32:48;4.90;;;2.40;;
72801;SDS011;61891;55.818;37.084;2023-07-24T06:35:16;3.15;;;2.22;;
72801;SDS011;61891;55.818;37.084;2023-07-24T06:37:45;3.20;;;2.05;;
72801;SDS011;61891;55.818;37.084;2023-07-24T06:40:11;3.88;;;1.80;;
72801;SDS011;61891;55.818;37.084;2023-07-24T06:42:39;4.10;;;2.05;;
72801;SDS011;61891;55.818;37.084;2023-07-24T06:45:06;4.18;;;2.13;;
72801;SDS011;61891;55.818;37.084;2023-07-24T06:47:35;1.70;;;1.23;;
72801;SDS011;61891;55.818;37.084;2023-07-24T06:50:01;2.63;;;1.48;;
72801;SDS011;61891;55.818;37.084;2023-07-24T06:52:32;3.78;;;1.50;;
72801;SDS011;61891;55.818;37.084;2023-07-24T06:54:58;1.88;;;1.60;;
72801;SDS011;61891;55.818;37.084;2023-07-24T06:57:31;2.78;;;1.60;;
72801;SDS011;61891;55.818;37.084;2023-07-24T06:59:57;1.20;;;1.10;;
72801;SDS011;61891;55.818;37.084;2023-07-24T07:02:23;3.20;;;1.83;;
72801;SDS011;61891;55.818;37.084;2023-07-24T07:04:51;1.70;;;1.55;;
72801;SDS011;61891;55.818;37.084;2023-07-24T07:07:17;2.28;;;1.30;;
72801;SDS011;61891;55.818;37.084;2023-07-24T07:09:43;1.60;;;1.50;;
72801;SDS011;61891;55.818;37.084;2023-07-24T07:12:09;5.05;;;1.65;;
72801;SDS011;61891;55.818;37.084;2023-07-24T07:14:35;2.13;;;1.50;;
72801;SDS011;61891;55.818;37.084;2023-07-24T07:17:04;2.67;;;1.73;;
72801;SDS011;61891;55.818;37.084;2023-07-24T07:19:30;2.70;;;1.33;;
72801;SDS011;61891;55.818;37.084;2023-07-24T07:21:56;1.50;;;1.17;;
72801;SDS011;61891;55.818;37.084;2023-07-24T07:24:22;1.73;;;1.13;;
72801;SDS011;61891;55.818;37.084;2023-07-24T07:26:47;2.20;;;1.13;;
72801;SDS011;61891;55.818;37.084;2023-07-24T07:29:13;2.03;;;1.60;;
72801;SDS011;61891;55.818;37.084;2023-07-24T07:31:41;2.33;;;1.70;;
72801;SDS011;61891;55.818;37.084;2023-07-24T07:34:08;2.47;;;1.63;;
72801;SDS011;61891;55.818;37.084;2023-07-24T07:36:34;2.88;;;1.58;;
72801;SDS011;61891;55.818;37.084;2023-07-24T07:38:59;2.63;;;1.50;;
72801;SDS011;61891;55.818;37.084;2023-07-24T07:41:28;2.15;;;1.65;;
72801;SDS011;61891;55.818;37.084;2023-07-24T07:43:54;2.53;;;1.40;;
72801;SDS011;61891;55.818;37.084;2023-07-24T07:46:23;2.45;;;1.70;;
72801;SDS011;61891;55.818;37.084;2023-07-24T07:48:51;2.15;;;1.45;;
72801;SDS011;61891;55.818;37.084;2023-07-24T07:51:17;3.50;;;2.10;;
72801;SDS011;61891;55.818;37.084;2023-07-24T07:53:43;2.80;;;1.98;;
72801;SDS011;61891;55.818;37.084;2023-07-24T07:56:09;2.60;;;1.80;;
72801;SDS011;61891;55.818;37.084;2023-07-24T07:58:35;4.38;;;2.38;;
72801;SDS011;61891;55.818;37.084;2023-07-24T08:01:04;2.17;;;1.80;;
72801;SDS011;61891;55.818;37.084;2023-07-24T08:03:30;2.42;;;1.75;;
72801;SDS011;61891;55.818;37.084;2023-07-24T08:05:57;2.75;;;2.00;;
72801;SDS011;61891;55.818;37.084;2023-07-24T08:08:23;2.85;;;2.00;;
72801;SDS011;61891;55.818;37.084;2023-07-24T08:10:49;5.25;;;2.10;;
72801;SDS011;61891;55.818;37.084;2023-07-24T08:13:21;4.95;;;2.45;;
72801;SDS011;61891;55.818;37.084;2023-07-24T08:15:46;2.92;;;1.85;;
72801;SDS011;61891;55.818;37.084;2023-07-24T08:18:12;4.00;;;2.38;;
72801;SDS011;61891;55.818;37.084;2023-07-24T08:20:38;3.00;;;2.35;;
72801;SDS011;61891;55.818;37.084;2023-07-24T08:23:05;2.92;;;2.10;;
72801;SDS011;61891;55.818;37.084;2023-07-24T08:25:31;3.30;;;1.90;;
72801;SDS011;61891;55.818;37.084;2023-07-24T08:27:57;3.17;;;1.83;;
72801;SDS011;61891;55.818;37.084;2023-07-24T08:30:22;2.60;;;1.80;;
72801;SDS011;61891;55.818;37.084;2023-07-24T08:32:48;3.88;;;2.42;;
72801;SDS011;61891;55.818;37.084;2023-07-24T08:35:16;3.15;;;2.60;;
72801;SDS011;61891;55.818;37.084;2023-07-24T08:37:42;3.85;;;2.65;;
72801;SDS011;61891;55.818;37.084;2023-07-24T08:40:09;3.20;;;2.08;;
72801;SDS011;61891;55.818;37.084;2023-07-24T08:42:39;3.40;;;2.70;;
72801;SDS011;61891;55.818;37.084;2023-07-24T08:45:11;3.45;;;2.47;;
72801;SDS011;61891;55.818;37.084;2023-07-24T08:47:41;3.38;;;2.28;;
72801;SDS011;61891;55.818;37.084;2023-07-24T08:50:09;5.00;;;2.60;;
72801;SDS011;61891;55.818;37.084;2023-07-24T08:52:37;2.70;;;2.40;;
72801;SDS011;61891;55.818;37.084;2023-07-24T08:55:04;3.05;;;2.30;;
72801;SDS011;61891;55.818;37.084;2023-07-24T08:57:31;3.17;;;2.45;;
72801;SDS011;61891;55.818;37.084;2023-07-24T08:59:57;4.72;;;2.63;;
72801;SDS011;61891;55.818;37.084;2023-07-24T09:02:23;3.45;;;2.35;;
72801;SDS011;61891;55.818;37.084;2023-07-24T09:04:49;3.38;;;2.50;;
72801;SDS011;61891;55.818;37.084;2023-07-24T09:07:15;2.83;;;2.15;;
72801;SDS011;61891;55.818;37.084;2023-07-24T09:09:41;4.03;;;2.67;;
72801;SDS011;61891;55.818;37.084;2023-07-24T09:12:08;3.72;;;2.33;;
72801;SDS011;61891;55.818;37.084;2023-07-24T09:14:33;2.83;;;2.53;;
72801;SDS011;61891;55.818;37.084;2023-07-24T09:17:06;2.80;;;2.30;;
72801;SDS011;61891;55.818;37.084;2023-07-24T09:19:33;3.55;;;2.63;;
72801;SDS011;61891;55.818;37.084;2023-07-24T09:22:09;4.88;;;2.90;;
72801;SDS011;61891;55.818;37.084;2023-07-24T09:24:51;2.70;;;2.00;;
72801;SDS011;61891;55.818;37.084;2023-07-24T09:27:18;3.25;;;2.83;;
72801;SDS011;61891;55.818;37.084;2023-07-24T09:29:44;3.00;;;2.30;;
72801;SDS011;61891;55.818;37.084;2023-07-24T09:32:23;3.30;;;2.60;;
72801;SDS011;61891;55.818;37.084;2023-07-24T09:34:51;3.53;;;2.70;;
72801;SDS011;61891;55.818;37.084;2023-07-24T09:37:26;3.95;;;2.50;;
72801;SDS011;61891;55.818;37.084;2023-07-24T09:39:56;4.65;;;2.72;;
72801;SDS011;61891;55.818;37.084;2023-07-24T09:42:31;3.80;;;2.20;;
72801;SDS011;61891;55.818;37.084;2023-07-24T09:44:58;3.10;;;2.65;;
72801;SDS011;61891;55.818;37.084;2023-07-24T09:47:26;4.40;;;2.60;;
72801;SDS011;61891;55.818;37.084;2023-07-24T09:49:52;3.83;;;2.67;;
72801;SDS011;61891;55.818;37.084;2023-07-24T09:52:20;3.45;;;2.35;;
72801;SDS011;61891;55.818;37.084;2023-07-24T09:57:30;4.32;;;2.95;;
72801;SDS011;61891;55.818;37.084;2023-07-24T09:59:57;3.53;;;1.92;;
72801;SDS011;61891;55.818;37.084;2023-07-24T10:02:24;2.35;;;1.83;;
72801;SDS011;61891;55.818;37.084;2023-07-24T10:07:15;3.13;;;2.00;;
72801;SDS011;61891;55.818;37.084;2023-07-24T10:09:45;3.25;;;1.95;;
72801;SDS011;61891;55.818;37.084;2023-07-24T10:12:11;3.00;;;1.70;;
72801;SDS011;61891;55.818;37.084;2023-07-24T10:14:36;3.38;;;2.67;;
72801;SDS011;61891;55.818;37.084;2023-07-24T10:17:03;2.50;;;2.03;;
72801;SDS011;61891;55.818;37.084;2023-07-24T10:19:39;4.22;;;2.80;;
72801;SDS011;61891;55.818;37.084;2023-07-24T10:22:17;4.95;;;2.05;;
72801;SDS011;61891;55.818;37.084;2023-07-24T10:24:44;4.18;;;2.10;;
72801;SDS011;61891;55.818;37.084;2023-07-24T10:27:11;4.50;;;2.40;;
72801;SDS011;61891;55.818;37.084;2023-07-24T10:29:37;3.28;;;2.10;;
72801;SDS011;61891;55.818;37.084;2023-07-24T10:32:04;3.15;;;2.40;;
72801;SDS011;61891;55.818;37.084;2023-07-24T10:35:05;3.83;;;2.15;;
72801;SDS011;61891;55.818;37.084;2023-07-24T10:37:34;3.70;;;2.55;;
72801;SDS011;61891;55.818;37.084;2023-07-24T10:40:02;3.05;;;2.75;;
72801;SDS011;61891;55.818;37.084;2023-07-24T10:42:30;3.13;;;2.45;;
72801;SDS011;61891;55.818;37.084;2023-07-24T10:45:06;5.20;;;2.72;;
72801;SDS011;61891;55.818;37.084;2023-07-24T10:47:33;3.78;;;2.83;;
72801;SDS011;61891;55.818;37.084;2023-07-24T10:49:59;4.82;;;2.83;;
72801;SDS011;61891;55.818;37.084;2023-07-24T10:52:32;5.13;;;3.60;;
72801;SDS011;61891;55.818;37.084;2023-07-24T10:55:05;3.90;;;2.83;;
72801;SDS011;61891;55.818;37.084;2023-07-24T10:57:32;5.97;;;2.88;;
72801;SDS011;61891;55.818;37.084;2023-07-24T10:59:59;4.82;;;3.20;;
72801;SDS011;61891;55.818;37.084;2023-07-24T11:04:51;5.50;;;3.58;;
72801;SDS011;61891;55.818;37.084;2023-07-24T11:07:16;3.95;;;3.35;;
72801;SDS011;61891;55.818;37.084;2023-07-24T11:09:42;4.10;;;3.40;;
72801;SDS011;61891;55.818;37.084;2023-07-24T11:12:14;4.93;;;3.63;;
72801;SDS011;61891;55.818;37.084;2023-07-24T11:14:48;5.60;;;3.40;;
72801;SDS011;61891;55.818;37.084;2023-07-24T11:17:15;5.05;;;3.45;;
72801;SDS011;61891;55.818;37.084;2023-07-24T11:19:41;5.72;;;3.50;;
72801;SDS011;61891;55.818;37.084;2023-07-24T11:22:06;3.50;;;3.05;;
72801;SDS011;61891;55.818;37.084;2023-07-24T11:24:32;4.50;;;3.53;;
72801;SDS011;61891;55.818;37.084;2023-07-24T11:26:58;4.78;;;3.47;;
72801;SDS011;61891;55.818;37.084;2023-07-24T11:29:24;6.55;;;3.65;;
72801;SDS011;61891;55.818;37.084;2023-07-24T11:31:56;4.90;;;3.47;;
72801;SDS011;61891;55.818;37.084;2023-07-24T11:34:22;4.15;;;2.88;;
72801;SDS011;61891;55.818;37.084;2023-07-24T11:36:48;5.20;;;3.53;;
72801;SDS011;61891;55.818;37.084;2023-07-24T11:39:21;5.05;;;3.63;;
72801;SDS011;61891;55.818;37.084;2023-07-24T11:41:50;4.45;;;3.67;;
72801;SDS011;61891;55.818;37.084;2023-07-24T11:44:23;7.60;;;4.20;;
72801;SDS011;61891;55.818;37.084;2023-07-24T11:47:14;6.03;;;4.57;;
72801;SDS011;61891;55.818;37.084;2023-07-24T11:49:39;5.60;;;3.53;;
72801;SDS011;61891;55.818;37.084;2023-07-24T11:52:10;3.95;;;3.00;;
72801;SDS011;61891;55.818;37.084;2023-07-24T11:54:36;5.68;;;3.13;;
72801;SDS011;61891;55.818;37.084;2023-07-24T11:57:02;5.68;;;4.53;;
72801;SDS011;61891;55.818;37.084;2023-07-24T11:59:28;6.95;;;4.82;;
72801;SDS011;61891;55.818;37.084;2023-07-24T12:02:02;5.60;;;4.50;;
72801;SDS011;61891;55.818;37.084;2023-07-24T12:04:30;10.00;;;4.65;;
72801;SDS011;61891;55.818;37.084;2023-07-24T12:06:56;6.45;;;4.60;;
72801;SDS011;61891;55.818;37.084;2023-07-24T12:09:22;5.68;;;3.60;;
72801;SDS011;61891;55.818;37.084;2023-07-24T12:11:47;6.35;;;4.03;;
72801;SDS011;61891;55.818;37.084;2023-07-24T12:14:14;4.35;;;3.80;;
72801;SDS011;61891;55.818;37.084;2023-07-24T12:16:40;5.63;;;4.30;;
72801;SDS011;61891;55.818;37.084;2023-07-24T12:19:05;5.53;;;3.92;;
72801;SDS011;61891;55.818;37.084;2023-07-24T12:21:31;6.43;;;4.07;;
72801;SDS011;61891;55.818;37.084;2023-07-24T12:23:57;5.00;;;4.00;;
72801;SDS011;61891;55.818;37.084;2023-07-24T12:26:23;6.40;;;4.35;;
72801;SDS011;61891;55.818;37.084;2023-07-24T12:28:50;5.47;;;3.88;;
72801;SDS011;61891;55.818;37.084;2023-07-24T12:31:16;5.38;;;3.55;;
72801;SDS011;61891;55.818;37.084;2023-07-24T12:33:42;4.32;;;3.30;;
72801;SDS011;61891;55.818;37.084;2023-07-24T12:36:10;5.22;;;3.75;;
72801;SDS011;61891;55.818;37.084;2023-07-24T12:38:36;4.75;;;3.08;;
72801;SDS011;61891;55.818;37.084;2023-07-24T12:41:01;4.70;;;3.17;;
72801;SDS011;61891;55.818;37.084;2023-07-24T12:43:27;4.78;;;3.40;;
72801;SDS011;61891;55.818;37.084;2023-07-24T12:45:53;5.13;;;3.50;;
72801;SDS011;61891;55.818;37.084;2023-07-24T12:48:19;4.70;;;3.70;;
72801;SDS011;61891;55.818;37.084;2023-07-24T12:50:45;6.40;;;4.07;;
72801;SDS011;61891;55.818;37.084;2023-07-24T12:53:10;4.30;;;3.90;;
72801;SDS011;61891;55.818;37.084;2023-07-24T12:55:38;4.85;;;3.63;;
72801;SDS011;61891;55.818;37.084;2023-07-24T12:58:03;5.25;;;4.22;;
72801;SDS011;61891;55.818;37.084;2023-07-24T13:00:29;6.05;;;3.85;;
72801;SDS011;61891;55.818;37.084;2023-07-24T13:02:55;5.40;;;4.00;;
72801;SDS011;61891;55.818;37.084;2023-07-24T13:05:21;5.65;;;4.00;;
72801;SDS011;61891;55.818;37.084;2023-07-24T13:07:47;5.90;;;4.35;;
72801;SDS011;61891;55.818;37.084;2023-07-24T13:10:12;5.60;;;3.83;;
72801;SDS011;61891;55.818;37.084;2023-07-24T13:12:38;4.70;;;3.50;;
72801;SDS011;61891;55.818;37.084;2023-07-24T13:15:04;7.00;;;3.92;;
72801;SDS011;61891;55.818;37.084;2023-07-24T13:17:31;7.75;;;3.40;;
72801;SDS011;61891;55.818;37.084;2023-07-24T13:19:56;4.70;;;4.20;;
72801;SDS011;61891;55.818;37.084;2023-07-24T13:22:22;6.38;;;4.40;;
72801;SDS011;61891;55.818;37.084;2023-07-24T13:24:48;6.25;;;4.07;;
72801;SDS011;61891;55.818;37.084;2023-07-24T13:27:13;6.50;;;4.20;;
72801;SDS011;61891;55.818;37.084;2023-07-24T13:29:39;5.65;;;4.38;;
72801;SDS011;61891;55.818;37.084;2023-07-24T13:32:05;5.43;;;4.30;;
72801;SDS011;61891;55.818;37.084;2023-07-24T13:34:31;6.20;;;4.32;;
72801;SDS011;61891;55.818;37.084;2023-07-24T13:36:57;6.38;;;4.65;;
72801;SDS011;61891;55.818;37.084;2023-07-24T13:39:22;6.50;;;5.20;;
72801;SDS011;61891;55.818;37.084;2023-07-24T13:41:48;7.43;;;5.13;;
72801;SDS011;61891;55.818;37.084;2023-07-24T13:44:14;7.20;;;4.63;;
72801;SDS011;61891;55.818;37.084;2023-07-24T13:46:40;7.10;;;4.93;;
72801;SDS011;61891;55.818;37.084;2023-07-24T13:49:05;6.75;;;5.00;;
72801;SDS011;61891;55.818;37.084;2023-07-24T13:51:31;7.43;;;4.90;;
72801;SDS011;61891;55.818;37.084;2023-07-24T13:53:57;5.13;;;4.13;;
72801;SDS011;61891;55.818;37.084;2023-07-24T13:56:24;5.28;;;4.00;;
72801;SDS011;61891;55.818;37.084;2023-07-24T13:58:52;7.38;;;4.97;;
72801;SDS011;61891;55.818;37.084;2023-07-24T14:01:18;7.50;;;4.90;;
72801;SDS011;61891;55.818;37.084;2023-07-24T14:03:44;6.65;;;5.15;;
72801;SDS011;61891;55.818;37.084;2023-07-24T14:06:09;7.07;;;4.20;;
72801;SDS011;61891;55.818;37.084;2023-07-24T14:08:35;6.40;;;4.53;;
72801;SDS011;61891;55.818;37.084;2023-07-24T14:11:01;5.40;;;4.20;;
72801;SDS011;61891;55.818;37.084;2023-07-24T14:13:27;7.78;;;4.70;;
72801;SDS011;61891;55.818;37.084;2023-07-24T14:15:53;8.35;;;4.72;;
72801;SDS011;61891;55.818;37.084;2023-07-24T14:18:19;10.45;;;4.80;;
72801;SDS011;61891;55.818;37.084;2023-07-24T14:23:12;6.35;;;4.20;;
72801;SDS011;61891;55.818;37.084;2023-07-24T14:28:04;6.05;;;3.47;;
72801;SDS011;61891;55.818;37.084;2023-07-24T14:30:29;7.63;;;4.03;;
72801;SDS011;61891;55.818;37.084;2023-07-24T14:32:55;6.22;;;4.30;;
72801;SDS011;61891;55.818;37.084;2023-07-24T14:37:47;5.40;;;3.83;;
72801;SDS011;61891;55.818;37.084;2023-07-24T14:42:38;6.35;;;4.05;;
72801;SDS011;61891;55.818;37.084;2023-07-24T14:45:04;6.28;;;4.30;;
72801;SDS011;61891;55.818;37.084;2023-07-24T14:47:33;7.95;;;4.55;;
72801;SDS011;61891;55.818;37.084;2023-07-24T14:49:59;5.20;;;4.07;;
72801;SDS011;61891;55.818;37.084;2023-07-24T14:52:25;8.43;;;4.95;;
72801;SDS011;61891;55.818;37.084;2023-07-24T14:54:51;8.63;;;4.93;;
72801;SDS011;61891;55.818;37.084;2023-07-24T14:57:17;4.60;;;3.20;;
72801;SDS011;61891;55.818;37.084;2023-07-24T14:59:42;5.28;;;4.15;;
72801;SDS011;61891;55.818;37.084;2023-07-24T15:02:08;5.82;;;3.92;;
72801;SDS011;61891;55.818;37.084;2023-07-24T15:04:34;9.77;;;4.93;;
72801;SDS011;61891;55.818;37.084;2023-07-24T15:07:00;6.45;;;4.10;;